createdAt,value
2023-01-03T00:02:12.018Z,82.93
2023-01-03T00:12:30.456Z,82.99
2023-01-03T00:22:38.300Z,82.98
2023-01-03T00:32:45.430Z,83.09
2023-01-03T00:43:10.187Z,83.03
2023-01-03T00:53:17.570Z,83.04
2023-01-03T01:03:25.114Z,83.14
2023-01-03T01:13:34.319Z,83.10
2023-01-03T01:23:42.976Z,83.03
2023-01-03T01:33:49.386Z,83.10
2023-01-03T01:44:14.929Z,83.06
2023-01-03T01:54:22.719Z,83.16
2023-01-03T02:04:34.388Z,83.00
2023-01-03T02:14:39.964Z,83.30
2023-01-03T02:25:18.671Z,83.33
2023-01-03T02:35:24.246Z,83.28
2023-01-03T02:45:37.896Z,83.09
2023-01-03T02:55:47.811Z,82.78
2023-01-03T03:05:55.334Z,82.61
2023-01-03T03:16:06.974Z,82.70
2023-01-03T03:26:17.429Z,82.57
2023-01-03T03:36:31.834Z,82.53
2023-01-03T03:46:41.800Z,82.51
2023-01-03T03:56:50.313Z,82.77
2023-01-03T04:06:58.052Z,82.83
2023-01-03T04:17:05.560Z,82.86
2023-01-03T04:27:12.775Z,82.91
2023-01-03T04:37:19.078Z,82.86
2023-01-03T04:47:26.316Z,82.82
2023-01-03T04:57:33.747Z,82.77
2023-01-03T05:07:41.016Z,82.68
2023-01-03T05:17:48.217Z,82.81
2023-01-03T05:27:55.536Z,82.83
2023-01-03T05:38:02.718Z,82.84
2023-01-03T05:48:11.460Z,83.11
2023-01-03T05:58:19.256Z,83.18
2023-01-03T06:08:26.554Z,83.20
2023-01-03T06:18:35.579Z,83.25
2023-01-03T06:28:42.943Z,83.21
2023-01-03T06:38:50.448Z,83.10
2023-01-03T06:49:15.429Z,83.22
2023-01-03T06:59:23.190Z,83.32
2023-01-03T07:09:30.707Z,83.25
2023-01-03T07:19:37.829Z,83.39
2023-01-03T07:29:44.947Z,83.42
2023-01-03T07:39:51.904Z,83.39
2023-01-03T07:49:59.195Z,83.37
2023-01-03T08:00:07.431Z,83.52
2023-01-03T08:10:31.999Z,83.81
2023-01-03T08:20:39.074Z,83.91
2023-01-03T08:30:47.026Z,83.84
2023-01-03T08:40:55.143Z,83.92
2023-01-03T08:51:02.446Z,83.70
2023-01-03T09:01:11.701Z,83.71
2023-01-03T09:11:18.743Z,83.61
2023-01-03T09:21:25.859Z,83.51
2023-01-03T09:31:32.195Z,82.59
2023-01-03T09:41:41.753Z,81.85
2023-01-03T09:52:05.405Z,81.66
2023-01-03T10:02:34.538Z,81.30
2023-01-03T10:12:38.609Z,80.66
2023-01-03T10:22:49.379Z,80.58
2023-01-03T10:33:05.201Z,80.20
2023-01-03T10:43:11.035Z,79.63
2023-01-03T10:53:22.247Z,78.99
2023-01-03T11:03:29.517Z,78.61
2023-01-03T11:13:34.996Z,78.19
2023-01-03T11:23:58.952Z,77.04
2023-01-03T11:34:06.812Z,76.64
2023-01-03T11:44:24.102Z,76.40
2023-01-03T11:54:52.811Z,76.36
2023-01-03T12:04:59.536Z,75.97
2023-01-03T12:15:12.615Z,75.70
2023-01-03T12:25:18.650Z,75.97
2023-01-03T12:35:37.751Z,76.27
2023-01-03T12:45:43.097Z,76.11
2023-01-03T12:55:50.278Z,76.26
2023-01-03T13:05:58.070Z,76.53
2023-01-03T13:16:36.032Z,76.92
2023-01-03T13:27:20.723Z,77.06
2023-01-03T13:37:29.086Z,77.07
2023-01-03T13:47:34.820Z,77.33
2023-01-03T13:57:51.823Z,77.61
2023-01-03T14:08:19.495Z,77.69
2023-01-03T14:18:32.943Z,77.85
2023-01-03T14:28:41.286Z,77.70
2023-01-03T14:38:47.784Z,77.86
2023-01-03T14:49:02.689Z,77.95
2023-01-03T14:59:10.067Z,78.41
2023-01-03T15:09:14.459Z,78.44
2023-01-03T15:19:22.706Z,78.51
2023-01-03T15:29:46.207Z,78.64
2023-01-03T15:39:53.830Z,78.71
2023-01-03T15:50:03.827Z,78.97
2023-01-03T16:00:16.642Z,79.23
2023-01-03T16:10:23.855Z,79.33
2023-01-03T16:20:31.722Z,79.18
2023-01-03T16:30:39.191Z,79.33
2023-01-03T16:40:47.308Z,79.50
2023-01-03T16:50:52.518Z,79.55
2023-01-03T17:01:00.048Z,79.87
2023-01-03T17:11:09.155Z,79.83
2023-01-03T17:21:26.578Z,80.23
2023-01-03T17:31:33.699Z,80.55
2023-01-03T17:41:55.243Z,80.61
2023-01-03T17:52:06.443Z,80.70
2023-01-03T18:02:17.192Z,80.61
2023-01-03T18:12:26.929Z,80.88
2023-01-03T18:22:32.428Z,80.83
2023-01-03T18:32:39.571Z,80.80
2023-01-03T18:43:04.634Z,80.78
2023-01-03T18:53:16.143Z,80.58
2023-01-03T19:03:22.420Z,80.51
2023-01-03T19:13:50.731Z,80.81
2023-01-03T19:23:58.564Z,81.21
2023-01-03T19:34:07.298Z,80.91
2023-01-03T19:44:13.100Z,80.91
2023-01-03T19:54:20.495Z,81.31
2023-01-03T20:04:28.100Z,81.35
2023-01-03T20:14:34.824Z,81.82
2023-01-03T20:24:42.331Z,82.07
2023-01-03T20:34:49.448Z,82.31
2023-01-03T20:44:56.862Z,82.15
2023-01-03T20:55:04.091Z,82.37
2023-01-03T21:05:11.726Z,82.57
2023-01-03T21:15:19.029Z,82.61
2023-01-03T21:25:30.190Z,82.63
2023-01-03T21:35:41.190Z,82.91
2023-01-03T21:45:50.959Z,83.12
2023-01-03T21:55:56.463Z,83.00
2023-01-03T22:06:11.190Z,82.99
2023-01-03T22:16:19.139Z,83.17
2023-01-03T22:26:30.753Z,83.36
2023-01-03T22:36:41.675Z,83.40
2023-01-03T22:46:48.768Z,83.60
2023-01-03T22:56:56.078Z,83.84
2023-01-03T23:07:02.655Z,83.74
2023-01-03T23:17:27.286Z,83.85
2023-01-03T23:27:33.673Z,83.89
2023-01-03T23:37:41.095Z,83.86
2023-01-03T23:47:48.144Z,83.87
2023-01-03T23:57:55.322Z,83.95
